createdAt,value
2019-05-12T00:02:07.804Z,68.10
2019-05-12T00:04:38.521Z,68.10
2019-05-12T00:07:08.756Z,67.90
2019-05-12T00:09:38.787Z,68.30
2019-05-12T00:12:19.637Z,68.80
2019-05-12T00:14:48.847Z,68.50
2019-05-12T00:17:18.865Z,68.70
2019-05-12T00:19:48.436Z,68.50
2019-05-12T00:22:19.204Z,68.10
2019-05-12T00:24:48.384Z,67.80
2019-05-12T00:27:19.391Z,68.90
2019-05-12T00:29:48.739Z,68.10
2019-05-12T00:32:18.068Z,68.50
2019-05-12T00:34:48.108Z,68.80
2019-05-12T00:37:18.525Z,68.90
2019-05-12T00:39:47.943Z,68.40
2019-05-12T00:42:18.271Z,68.10
2019-05-12T00:44:47.934Z,68.90
2019-05-12T00:47:18.765Z,69.00
2019-05-12T00:49:49.611Z,68.70
2019-05-12T00:52:19.185Z,68.30
2019-05-12T00:54:48.474Z,68.50
2019-05-12T00:57:18.190Z,67.70
2019-05-12T00:59:47.915Z,68.10
2019-05-12T01:02:18.333Z,68.50
2019-05-12T01:04:48.643Z,68.30
2019-05-12T01:07:18.438Z,68.10
2019-05-12T01:09:49.178Z,68.30
2019-05-12T01:12:18.512Z,68.80
2019-05-12T01:14:47.880Z,68.10
2019-05-12T01:17:17.821Z,68.40
2019-05-12T01:19:48.574Z,68.50
2019-05-12T01:22:18.714Z,68.20
2019-05-12T01:24:48.386Z,68.10
2019-05-12T01:27:18.130Z,68.10
2019-05-12T01:29:48.094Z,68.30
2019-05-12T01:32:29.300Z,68.60
2019-05-12T01:34:58.581Z,68.70
2019-05-12T01:37:28.145Z,68.10
2019-05-12T01:39:59.978Z,68.40
2019-05-12T01:42:28.815Z,68.10
2019-05-12T01:44:58.542Z,68.00
2019-05-12T01:47:29.094Z,68.10
2019-05-12T01:49:58.608Z,67.80
2019-05-12T01:52:28.561Z,67.70
2019-05-12T01:54:59.035Z,67.80
2019-05-12T01:57:28.861Z,67.80
2019-05-12T01:59:58.650Z,68.10
2019-05-12T02:02:28.685Z,68.00
2019-05-12T02:05:08.225Z,67.90
2019-05-12T02:07:41.234Z,67.70
2019-05-12T02:10:11.115Z,68.10
2019-05-12T02:12:40.301Z,68.20
2019-05-12T02:15:09.949Z,68.10
2019-05-12T02:17:39.307Z,68.00
2019-05-12T02:20:09.772Z,67.80
2019-05-12T02:22:39.024Z,67.80
2019-05-12T02:25:08.726Z,67.90
2019-05-12T02:27:38.483Z,68.10
2019-05-12T02:30:09.843Z,68.30
2019-05-12T02:32:48.569Z,68.60
2019-05-12T02:35:10.756Z,68.30
2019-05-12T02:37:39.923Z,68.60
2019-05-12T02:40:14.909Z,68.70
2019-05-12T02:42:45.978Z,68.40
2019-05-12T02:45:15.390Z,68.40
2019-05-12T02:47:45.844Z,68.50
2019-05-12T02:50:20.117Z,68.50
2019-05-12T02:52:49.789Z,68.80
2019-05-12T02:55:19.161Z,68.50
2019-05-12T02:57:50.161Z,68.30
2019-05-12T03:00:19.500Z,68.10
2019-05-12T03:02:50.368Z,68.10
2019-05-12T03:05:19.577Z,68.00
2019-05-12T03:07:49.868Z,67.80
2019-05-12T03:10:19.272Z,67.90
2019-05-12T03:12:48.411Z,68.10
2019-05-12T03:15:17.652Z,68.00
2019-05-12T03:18:06.899Z,67.80
2019-05-12T03:20:36.602Z,67.80
2019-05-12T03:23:06.925Z,67.60
2019-05-12T03:25:37.254Z,67.80
2019-05-12T03:28:08.462Z,67.80
2019-05-12T03:30:40.114Z,67.60
2019-05-12T03:33:10.719Z,67.70
2019-05-12T03:35:44.243Z,67.90
2019-05-12T03:38:10.355Z,67.90
2019-05-12T03:40:39.612Z,67.80
2019-05-12T03:43:09.011Z,68.00
2019-05-12T03:45:38.326Z,67.90
2019-05-12T03:48:07.461Z,68.00
2019-05-12T03:50:36.913Z,68.20
2019-05-12T03:53:10.651Z,68.20
2019-05-12T03:55:41.925Z,68.20
2019-05-12T03:58:08.144Z,68.40
2019-05-12T04:00:37.379Z,69.70
2019-05-12T04:03:06.889Z,68.90
2019-05-12T04:05:36.501Z,69.10
2019-05-12T04:08:06.594Z,68.30
2019-05-12T04:10:36.944Z,68.40
2019-05-12T04:13:06.497Z,69.40
2019-05-12T04:15:36.070Z,68.80
2019-05-12T04:18:06.499Z,68.80
2019-05-12T04:20:36.579Z,68.70
2019-05-12T04:23:06.795Z,69.30
2019-05-12T04:25:51.749Z,69.10
2019-05-12T04:28:07.248Z,69.70
2019-05-12T04:30:36.594Z,70.20
2019-05-12T04:33:06.016Z,69.70
2019-05-12T04:35:35.983Z,69.50
2019-05-12T04:38:05.795Z,70.40
2019-05-12T04:40:36.281Z,70.00
2019-05-12T04:43:06.591Z,70.60
2019-05-12T04:45:36.208Z,70.20
2019-05-12T04:48:06.239Z,70.80
2019-05-12T04:50:36.480Z,70.60
2019-05-12T04:53:06.773Z,71.00
2019-05-12T04:55:36.799Z,71.80
2019-05-12T04:58:06.434Z,72.50
2019-05-12T05:00:36.121Z,72.90
2019-05-12T05:03:06.118Z,73.10
2019-05-12T05:05:36.346Z,72.80
2019-05-12T05:08:06.017Z,73.30
2019-05-12T05:10:35.278Z,72.90
2019-05-12T05:13:05.641Z,74.10
2019-05-12T05:15:35.558Z,73.70
2019-05-12T05:18:06.751Z,73.60
2019-05-12T05:20:36.119Z,74.90
2019-05-12T05:23:05.281Z,73.50
2019-05-12T05:25:35.196Z,73.70
2019-05-12T05:28:05.109Z,74.70
2019-05-12T05:30:34.525Z,74.60
2019-05-12T05:33:04.927Z,74.50
2019-05-12T05:35:39.439Z,74.20
2019-05-12T05:38:05.902Z,73.90
2019-05-12T05:40:36.071Z,74.30
2019-05-12T05:43:12.533Z,73.40
2019-05-12T05:45:36.413Z,73.50
2019-05-12T05:48:10.041Z,73.70
2019-05-12T05:50:36.742Z,73.40
2019-05-12T05:53:09.306Z,73.70
2019-05-12T05:55:36.925Z,73.70
2019-05-12T05:58:10.249Z,74.00
2019-05-12T06:00:39.422Z,74.00
2019-05-12T06:03:14.899Z,73.90
2019-05-12T06:05:42.873Z,73.80
2019-05-12T06:08:16.592Z,73.80
2019-05-12T06:10:43.527Z,73.70
2019-05-12T06:13:14.398Z,74.30
2019-05-12T06:15:43.815Z,73.10
2019-05-12T06:18:13.688Z,71.40
2019-05-12T06:20:43.653Z,71.10
2019-05-12T06:23:14.868Z,71.50
2019-05-12T06:26:04.780Z,71.70
2019-05-12T06:28:37.128Z,71.10
2019-05-12T06:31:07.387Z,71.20
2019-05-12T06:33:37.620Z,71.80
2019-05-12T06:36:07.517Z,72.60
2019-05-12T06:38:40.368Z,72.30
2019-05-12T06:41:12.677Z,72.50
2019-05-12T06:43:42.654Z,72.50
2019-05-12T06:46:11.775Z,72.10
2019-05-12T06:48:45.618Z,72.30
2019-05-12T06:51:22.443Z,72.20
2019-05-12T06:53:45.776Z,71.70
2019-05-12T06:56:19.623Z,70.50
2019-05-12T06:58:46.544Z,71.00
2019-05-12T07:01:19.366Z,71.30
2019-05-12T07:03:47.071Z,71.60
2019-05-12T07:06:19.705Z,70.90
2019-05-12T07:09:01.276Z,71.00
2019-05-12T07:11:18.958Z,71.20
2019-05-12T07:14:01.278Z,71.30
2019-05-12T07:16:26.691Z,71.20
2019-05-12T07:18:50.735Z,71.30
2019-05-12T07:21:23.726Z,71.30
2019-05-12T07:23:54.177Z,70.90
2019-05-12T07:26:23.690Z,70.60
2019-05-12T07:29:06.124Z,69.30
2019-05-12T07:31:38.853Z,69.10
2019-05-12T07:34:08.695Z,68.70
2019-05-12T07:36:46.667Z,68.30
2019-05-12T07:39:17.557Z,68.40
2019-05-12T07:41:56.507Z,68.60
2019-05-12T07:44:32.083Z,68.40
2019-05-12T07:47:03.374Z,68.50
2019-05-12T07:49:35.169Z,68.00
2019-05-12T07:52:03.650Z,67.30
2019-05-12T07:54:35.362Z,68.40
2019-05-12T07:57:12.171Z,70.80
2019-05-12T07:59:40.955Z,70.60
2019-05-12T08:02:06.374Z,71.40
2019-05-12T08:04:39.853Z,72.50
2019-05-12T08:07:14.469Z,72.70
2019-05-12T08:09:44.260Z,73.10
2019-05-12T08:12:20.952Z,74.30
2019-05-12T08:14:48.767Z,74.20
2019-05-12T08:17:19.550Z,73.30
2019-05-12T08:19:49.192Z,74.80
2019-05-12T08:22:23.824Z,74.70
2019-05-12T08:24:49.539Z,73.10
2019-05-12T08:27:18.809Z,72.30
2019-05-12T08:29:54.480Z,71.60
2019-05-12T08:32:20.303Z,71.00
2019-05-12T08:34:49.991Z,71.10
2019-05-12T08:37:19.271Z,71.90
2019-05-12T08:39:53.421Z,72.20
2019-05-12T08:42:19.747Z,71.20
2019-05-12T08:44:49.030Z,71.80
2019-05-12T08:47:18.250Z,72.40
2019-05-12T08:49:58.349Z,72.80
2019-05-12T08:52:24.991Z,72.00
2019-05-12T08:54:54.203Z,72.00
2019-05-12T08:57:24.157Z,73.30
2019-05-12T08:59:56.757Z,74.20
2019-05-12T09:02:24.872Z,74.30
2019-05-12T09:04:57.429Z,74.50
2019-05-12T09:07:30.480Z,74.50
2019-05-12T09:09:58.264Z,74.50
2019-05-12T09:12:27.630Z,74.60
2019-05-12T09:14:56.836Z,74.60
2019-05-12T09:17:26.456Z,74.00
2019-05-12T09:20:06.048Z,73.30
2019-05-12T09:22:26.576Z,69.60
2019-05-12T09:24:58.404Z,69.70
2019-05-12T09:27:26.833Z,69.40
2019-05-12T09:29:59.213Z,69.50
2019-05-12T09:32:27.027Z,69.50
2019-05-12T09:34:58.237Z,70.70
2019-05-12T09:37:30.809Z,69.10
2019-05-12T09:39:58.270Z,70.00
2019-05-12T09:42:29.980Z,70.10
2019-05-12T09:45:00.010Z,69.10
2019-05-12T09:47:29.726Z,66.30
2019-05-12T09:49:59.137Z,65.80
2019-05-12T09:52:28.419Z,65.80
2019-05-12T09:54:57.577Z,66.70
2019-05-12T09:57:32.496Z,65.10
2019-05-12T09:59:59.600Z,64.30
2019-05-12T10:02:29.054Z,65.90
2019-05-12T10:05:00.679Z,65.10
2019-05-12T10:07:48.355Z,64.30
2019-05-12T10:10:17.626Z,65.70
2019-05-12T10:12:50.541Z,65.80
2019-05-12T10:15:23.593Z,64.60
2019-05-12T10:17:49.267Z,63.50
2019-05-12T10:20:21.463Z,65.00
2019-05-12T10:22:49.476Z,64.60
2019-05-12T10:25:23.279Z,63.30
2019-05-12T10:27:49.807Z,62.90
2019-05-12T10:30:19.464Z,61.60
2019-05-12T10:32:48.835Z,60.90
2019-05-12T10:35:23.912Z,61.40
2019-05-12T10:37:49.061Z,60.00
2019-05-12T10:40:18.827Z,59.20
2019-05-12T10:42:49.679Z,58.00
2019-05-12T10:45:23.297Z,58.10
2019-05-12T10:47:52.337Z,57.60
2019-05-12T10:50:23.418Z,58.60
2019-05-12T10:52:53.659Z,56.60
2019-05-12T10:55:23.908Z,58.10
2019-05-12T10:58:14.466Z,57.50
2019-05-12T11:00:44.525Z,57.40
2019-05-12T11:03:15.470Z,56.30
2019-05-12T11:05:44.940Z,56.20
2019-05-12T11:08:14.492Z,56.30
2019-05-12T11:10:44.220Z,57.50
2019-05-12T11:13:14.193Z,56.70
2019-05-12T11:15:46.185Z,56.60
2019-05-12T11:18:20.466Z,56.90
2019-05-12T11:20:48.324Z,57.20
2019-05-12T11:23:17.507Z,56.50
2019-05-12T11:25:46.662Z,55.10
2019-05-12T11:28:16.232Z,55.80
2019-05-12T11:30:45.488Z,55.80
2019-05-12T11:33:14.695Z,56.50
2019-05-12T11:35:44.110Z,57.00
2019-05-12T11:38:13.662Z,56.30
2019-05-12T11:40:43.740Z,54.10
2019-05-12T11:43:14.374Z,55.00
2019-05-12T11:45:44.318Z,53.70
2019-05-12T11:48:14.420Z,54.40
2019-05-12T11:50:47.816Z,53.00
2019-05-12T11:53:15.029Z,52.10
2019-05-12T11:55:44.288Z,53.80
2019-05-12T11:58:13.488Z,55.30
2019-05-12T12:00:50.552Z,56.30
2019-05-12T12:03:19.614Z,56.10
2019-05-12T12:05:48.968Z,55.30
2019-05-12T12:08:19.211Z,54.70
2019-05-12T12:10:49.243Z,55.40
2019-05-12T12:13:24.256Z,56.30
2019-05-12T12:15:49.981Z,54.10
2019-05-12T12:18:19.100Z,55.30
2019-05-12T12:20:48.626Z,55.70
2019-05-12T12:23:17.880Z,54.80
2019-05-12T12:25:48.568Z,53.70
2019-05-12T12:28:17.972Z,54.30
2019-05-12T12:30:52.425Z,53.20
2019-05-12T12:33:18.635Z,52.80
2019-05-12T12:35:50.362Z,53.70
2019-05-12T12:38:18.805Z,55.00
2019-05-12T12:40:47.997Z,54.80
2019-05-12T12:43:17.295Z,56.30
2019-05-12T12:45:55.192Z,55.60
2019-05-12T12:48:29.432Z,55.60
2019-05-12T12:50:55.388Z,55.40
2019-05-12T12:53:27.450Z,55.10
2019-05-12T12:55:58.341Z,55.80
2019-05-12T12:58:31.094Z,57.60
2019-05-12T13:00:57.490Z,55.60
2019-05-12T13:03:29.884Z,55.50
2019-05-12T13:05:57.631Z,56.30
2019-05-12T13:08:27.176Z,55.40
2019-05-12T13:10:56.281Z,54.80
2019-05-12T13:13:25.389Z,55.70
2019-05-12T13:15:54.646Z,54.90
2019-05-12T13:18:32.660Z,56.00
2019-05-12T13:20:57.892Z,56.20
2019-05-12T13:23:36.789Z,54.90
2019-05-12T13:25:57.366Z,55.10
2019-05-12T13:28:26.980Z,56.10
2019-05-12T13:31:08.268Z,56.40
2019-05-12T13:33:27.240Z,55.90
2019-05-12T13:35:57.575Z,55.00
2019-05-12T13:38:30.377Z,55.90
2019-05-12T13:40:57.932Z,54.90
2019-05-12T13:43:27.354Z,54.70
2019-05-12T13:45:56.590Z,54.40
2019-05-12T13:48:25.779Z,55.40
2019-05-12T13:51:07.365Z,55.20
2019-05-12T13:53:26.405Z,55.20
2019-05-12T13:55:55.551Z,54.90
2019-05-12T13:58:28.080Z,55.60
2019-05-12T14:01:17.140Z,55.10
2019-05-12T14:03:27.992Z,53.70
2019-05-12T14:05:57.759Z,54.80
2019-05-12T14:08:26.963Z,54.90
2019-05-12T14:10:59.466Z,55.40
2019-05-12T14:13:27.159Z,55.40
2019-05-12T14:15:56.297Z,55.50
2019-05-12T14:18:25.596Z,54.80
2019-05-12T14:20:58.941Z,54.20
2019-05-12T14:23:26.077Z,55.80
2019-05-12T14:25:55.445Z,56.20
2019-05-12T14:28:24.771Z,57.00
2019-05-12T14:30:54.608Z,56.70
2019-05-12T14:33:24.721Z,54.40
2019-05-12T14:35:54.038Z,55.00
2019-05-12T14:38:27.499Z,55.10
2019-05-12T14:40:54.233Z,55.20
2019-05-12T14:43:24.034Z,56.80
2019-05-12T14:45:54.189Z,57.10
2019-05-12T14:48:23.553Z,58.00
2019-05-12T14:50:53.515Z,58.20
2019-05-12T14:53:23.751Z,58.40
2019-05-12T14:55:53.683Z,58.00
2019-05-12T14:58:25.413Z,57.80
2019-05-12T15:00:56.299Z,58.10
2019-05-12T15:03:26.290Z,58.30
2019-05-12T15:05:55.595Z,58.60
2019-05-12T15:08:35.551Z,57.70
2019-05-12T15:10:55.992Z,58.60
2019-05-12T15:13:25.399Z,57.40
2019-05-12T15:15:58.027Z,58.30
2019-05-12T15:18:25.670Z,59.10
2019-05-12T15:20:54.813Z,58.80
2019-05-12T15:23:32.471Z,59.00
2019-05-12T15:25:55.028Z,59.20
2019-05-12T15:28:24.312Z,58.20
2019-05-12T15:30:54.984Z,58.10
2019-05-12T15:33:24.513Z,59.60
2019-05-12T15:35:54.739Z,59.70
2019-05-12T15:38:24.558Z,60.10
2019-05-12T15:40:54.940Z,59.90
2019-05-12T15:43:24.545Z,59.80
2019-05-12T15:45:59.475Z,60.00
2019-05-12T15:48:28.102Z,60.30
2019-05-12T15:51:06.995Z,60.30
2019-05-12T15:53:33.341Z,60.50
2019-05-12T15:56:05.722Z,60.70
2019-05-12T15:58:39.766Z,61.60
2019-05-12T16:01:08.849Z,62.20
2019-05-12T16:03:38.080Z,61.90
2019-05-12T16:06:11.815Z,61.60
2019-05-12T16:08:38.336Z,61.30
2019-05-12T16:11:07.859Z,62.10
2019-05-12T16:13:37.178Z,62.50
2019-05-12T16:16:06.818Z,62.80
2019-05-12T16:18:40.543Z,63.10
2019-05-12T16:21:09.547Z,63.70
2019-05-12T16:23:39.234Z,64.00
2019-05-12T16:26:12.493Z,63.30
2019-05-12T16:28:40.687Z,63.40
2019-05-12T16:31:10.019Z,63.70
2019-05-12T16:33:39.136Z,64.10
2019-05-12T16:36:11.436Z,64.30
2019-05-12T16:38:39.527Z,64.70
2019-05-12T16:41:08.948Z,63.30
2019-05-12T16:43:38.428Z,63.20
2019-05-12T16:46:07.976Z,63.30
2019-05-12T16:48:42.041Z,63.80
2019-05-12T16:51:10.739Z,63.40
2019-05-12T16:53:40.023Z,63.90
2019-05-12T16:56:09.675Z,65.00
2019-05-12T16:58:38.995Z,65.00
2019-05-12T17:01:08.241Z,64.00
2019-05-12T17:03:37.679Z,64.10
2019-05-12T17:06:07.124Z,64.60
2019-05-12T17:08:36.562Z,65.20
2019-05-12T17:11:23.326Z,65.20
2019-05-12T17:13:37.052Z,65.70
2019-05-12T17:16:07.147Z,64.30
2019-05-12T17:18:36.504Z,64.80
2019-05-12T17:21:05.704Z,64.70
2019-05-12T17:23:34.931Z,64.00
2019-05-12T17:26:04.319Z,62.20
2019-05-12T17:28:34.378Z,62.30
2019-05-12T17:31:03.992Z,63.50
2019-05-12T17:33:33.897Z,64.70
2019-05-12T17:36:12.076Z,65.00
2019-05-12T17:38:34.527Z,65.50
2019-05-12T17:41:04.168Z,65.60
2019-05-12T17:43:33.966Z,65.20
2019-05-12T17:46:04.380Z,65.60
2019-05-12T17:48:37.174Z,66.60
2019-05-12T17:51:05.107Z,66.20
2019-05-12T17:53:39.589Z,66.00
2019-05-12T17:56:08.939Z,66.30
2019-05-12T17:58:44.177Z,65.80
2019-05-12T18:01:31.277Z,65.90
2019-05-12T18:03:59.113Z,65.20
2019-05-12T18:06:30.890Z,66.50
2019-05-12T18:08:59.351Z,67.60
2019-05-12T18:11:28.576Z,67.00
2019-05-12T18:14:02.321Z,67.40
2019-05-12T18:16:29.044Z,67.30
2019-05-12T18:18:58.507Z,68.10
2019-05-12T18:21:30.998Z,68.90
2019-05-12T18:24:00.472Z,69.10
2019-05-12T18:26:29.512Z,68.80
2019-05-12T18:28:59.327Z,68.90
2019-05-12T18:31:28.499Z,67.90
2019-05-12T18:33:57.955Z,68.50
2019-05-12T18:36:27.116Z,69.40
2019-05-12T18:39:05.658Z,69.00
2019-05-12T18:41:27.403Z,69.70
2019-05-12T18:43:56.468Z,69.90
2019-05-12T18:46:25.727Z,70.00
2019-05-12T18:49:03.545Z,69.80
2019-05-12T18:51:25.811Z,69.30
2019-05-12T18:53:57.722Z,69.70
2019-05-12T18:56:26.037Z,69.00
2019-05-12T18:58:55.052Z,68.70
2019-05-12T19:01:24.598Z,68.90
2019-05-12T19:03:54.802Z,68.90
2019-05-12T19:06:24.146Z,69.00
2019-05-12T19:08:54.012Z,68.80
2019-05-12T19:11:31.474Z,68.70
2019-05-12T19:13:57.148Z,68.90
2019-05-12T19:16:25.057Z,69.00
2019-05-12T19:18:55.723Z,69.20
2019-05-12T19:21:25.315Z,68.90
2019-05-12T19:23:54.821Z,68.50
2019-05-12T19:26:25.068Z,69.80
2019-05-12T19:28:57.833Z,69.80
2019-05-12T19:31:26.475Z,69.70
2019-05-12T19:34:14.753Z,69.50
2019-05-12T19:36:26.871Z,70.40
2019-05-12T19:38:56.226Z,70.20
2019-05-12T19:41:30.932Z,70.30
2019-05-12T19:43:58.363Z,70.70
2019-05-12T19:46:27.627Z,70.20
2019-05-12T19:48:56.940Z,70.20
2019-05-12T19:51:28.355Z,71.10
2019-05-12T19:53:57.076Z,71.30
2019-05-12T19:56:34.724Z,71.00
2019-05-12T19:58:57.263Z,70.40
2019-05-12T20:01:32.605Z,71.40
2019-05-12T20:03:58.091Z,71.20
2019-05-12T20:06:27.565Z,71.70
2019-05-12T20:09:05.991Z,71.20
2019-05-12T20:11:31.324Z,72.30
2019-05-12T20:13:58.657Z,71.70
2019-05-12T20:16:30.521Z,71.00
2019-05-12T20:18:59.099Z,71.90
2019-05-12T20:21:28.672Z,72.10
2019-05-12T20:23:58.006Z,72.30
2019-05-12T20:26:27.379Z,72.60
2019-05-12T20:28:56.670Z,72.50
2019-05-12T20:31:27.279Z,72.30
2019-05-12T20:34:04.562Z,73.50
2019-05-12T20:36:27.790Z,73.40
2019-05-12T20:38:57.027Z,73.10
2019-05-12T20:41:26.891Z,72.70
2019-05-12T20:43:56.173Z,73.20
2019-05-12T20:46:26.067Z,73.70
2019-05-12T20:48:55.310Z,73.70
2019-05-12T20:51:24.859Z,74.10
2019-05-12T20:53:54.240Z,73.50
2019-05-12T20:56:25.058Z,74.40
2019-05-12T20:58:54.639Z,74.20
2019-05-12T21:01:28.294Z,73.90
2019-05-12T21:03:54.932Z,73.90
2019-05-12T21:06:24.183Z,74.80
2019-05-12T21:08:56.312Z,74.00
2019-05-12T21:11:24.651Z,73.70
2019-05-12T21:13:54.622Z,72.70
2019-05-12T21:16:31.156Z,72.80
2019-05-12T21:19:02.129Z,73.50
2019-05-12T21:21:33.280Z,73.10
2019-05-12T21:23:59.486Z,73.20
2019-05-12T21:26:28.401Z,72.80
2019-05-12T21:29:04.522Z,72.70
2019-05-12T21:31:33.795Z,74.10
2019-05-12T21:34:06.671Z,72.80
2019-05-12T21:36:39.376Z,74.50
2019-05-12T21:39:10.358Z,74.30
2019-05-12T21:41:40.745Z,73.10
2019-05-12T21:44:14.164Z,73.30
2019-05-12T21:46:47.422Z,73.20
2019-05-12T21:49:15.546Z,74.00
2019-05-12T21:51:50.306Z,74.30
2019-05-12T21:54:16.221Z,73.60
2019-05-12T21:56:49.327Z,73.80
2019-05-12T21:59:16.373Z,74.10
2019-05-12T22:01:46.389Z,73.40
2019-05-12T22:04:15.712Z,73.10
2019-05-12T22:06:44.784Z,73.60
2019-05-12T22:09:17.283Z,73.30
2019-05-12T22:11:51.453Z,72.80
2019-05-12T22:14:15.947Z,73.80
2019-05-12T22:16:47.492Z,73.80
2019-05-12T22:19:16.846Z,73.30
2019-05-12T22:21:49.290Z,73.70
2019-05-12T22:24:16.958Z,74.20
2019-05-12T22:26:46.784Z,73.60
2019-05-12T22:29:21.057Z,73.10
2019-05-12T22:31:48.285Z,73.00
2019-05-12T22:34:17.638Z,72.70
2019-05-12T22:36:55.207Z,73.30
2019-05-12T22:39:17.769Z,73.90
2019-05-12T22:41:47.175Z,73.50
2019-05-12T22:44:20.870Z,72.70
2019-05-12T22:46:47.820Z,72.50
2019-05-12T22:49:21.082Z,73.80
2019-05-12T22:51:47.907Z,72.70
2019-05-12T22:54:17.129Z,73.40
2019-05-12T22:57:05.340Z,73.10
2019-05-12T22:59:40.572Z,74.10
2019-05-12T23:02:05.513Z,74.10
2019-05-12T23:04:40.058Z,73.50
2019-05-12T23:07:05.583Z,73.20
2019-05-12T23:09:34.967Z,73.80
2019-05-12T23:12:04.513Z,73.00
2019-05-12T23:14:35.192Z,73.60
2019-05-12T23:17:05.591Z,73.00
2019-05-12T23:19:35.725Z,74.10
2019-05-12T23:22:05.140Z,74.30
2019-05-12T23:24:36.994Z,75.70
2019-05-12T23:27:08.409Z,74.60
2019-05-12T23:29:36.606Z,74.20
2019-05-12T23:32:10.055Z,74.00
2019-05-12T23:34:36.841Z,74.70
2019-05-12T23:37:06.000Z,74.50
2019-05-12T23:39:38.031Z,73.80
2019-05-12T23:42:06.360Z,73.40
2019-05-12T23:44:35.801Z,73.50
2019-05-12T23:47:05.002Z,73.50
2019-05-12T23:49:34.361Z,73.50
2019-05-12T23:52:04.080Z,75.10
2019-05-12T23:54:34.417Z,74.50
2019-05-12T23:57:04.071Z,74.10
2019-05-12T23:59:33.663Z,75.50
